Main page
METAR-TAF:

METAR-TAF

Airports :

London Southend Airport

London-Southend, England

latitude: 51-34N, longitude: 000-42E, elevation: 15 m

Current weather observation

The report was made 3 hours and 11 minutes ago, at 16:50 UTC
Wind 14 kt from the South
Temperature 19°C
Humidity 52%
Pressure 1009 hPa
Visibility 10 km or more
Few clouds at a height of 4200 ft

METAR: EGMC 251650Z 18014KT 9999 FEW042 19/09 Q1009

Time: 21:01 (20:01 UTC)

Forecast

The report was made 3 hours and 1 minutes ago, at 17:00 UTC
Forecast valid from 25 at 18 UTC to 26 at 03 UTC
Wind 8 kt from the South
Visibility 10 km or more
Few clouds at a height of 4500 ft
Probability 30% :
Temporary
from 25 at 18 UTC to 26 at 02 UTC
Visibility: 8000 m
rain showers

TAF: EGMC 251700Z 2518/2603 19008KT 9999 FEW045 PROB30 TEMPO 2518/2602 8000 SHRA

Weather observations and forecasts of more than 4000 airports (METAR and TAF reports).

The available stations are represented by yellow and red dots on the map.

Hover mouse over dot to see the name of the station.

Then click to see weather observations and forecasts.

To change the map : click on the green buttons with a black cross to zoom in, on the green button with a dash to zoom out, or on the green arrows for adjacent maps.


METAR-TAF: